createdAt,value
2018-12-17T00:01:36.572Z,97985.11
2018-12-17T00:04:08.831Z,97987.28
2018-12-17T00:06:41.100Z,97989.27
2018-12-17T00:09:13.371Z,97993.36
2018-12-17T00:11:45.655Z,97989.46
2018-12-17T00:14:17.878Z,97995.88
2018-12-17T00:16:50.167Z,97999.25
2018-12-17T00:19:22.398Z,97995.69
2018-12-17T00:21:54.684Z,97996.36
2018-12-17T00:24:26.917Z,97994.59
2018-12-17T00:26:59.221Z,97998.71
2018-12-17T00:29:31.466Z,98000.06
2018-12-17T00:32:03.754Z,98004.44
2018-12-17T00:34:36.019Z,98000.95
2018-12-17T00:37:08.308Z,97996.80
2018-12-17T00:39:40.585Z,97992.42
2018-12-17T00:42:12.834Z,97991.91
2018-12-17T00:44:45.102Z,97984.14
2018-12-17T00:47:17.348Z,97995.76
2018-12-17T00:49:49.628Z,97994.77
2018-12-17T00:52:21.879Z,97995.25
2018-12-17T00:54:54.915Z,98001.92
2018-12-17T00:57:27.149Z,98008.50
2018-12-17T00:59:59.419Z,98007.48
2018-12-17T01:02:31.653Z,98002.80
2018-12-17T01:05:04.796Z,98003.72
2018-12-17T01:07:37.071Z,98004.69
2018-12-17T01:10:09.390Z,98005.39
2018-12-17T01:12:41.629Z,98016.36
2018-12-17T01:15:13.891Z,98016.52
2018-12-17T01:17:46.147Z,98017.76
2018-12-17T01:20:18.423Z,98019.13
2018-12-17T01:22:50.748Z,98028.28
2018-12-17T01:25:23.108Z,98034.28
2018-12-17T01:27:55.345Z,98038.81
2018-12-17T01:30:27.576Z,98044.00
2018-12-17T01:32:59.812Z,98036.20
2018-12-17T01:35:32.073Z,98039.10
2018-12-17T01:38:04.291Z,98040.58
2018-12-17T01:40:36.639Z,98038.22
2018-12-17T01:43:08.881Z,98038.13
2018-12-17T01:45:41.161Z,98036.38
2018-12-17T01:48:13.436Z,98036.50
2018-12-17T01:50:45.652Z,98032.69
2018-12-17T01:53:17.935Z,98045.10
2018-12-17T01:55:50.176Z,98051.30
2018-12-17T01:58:29.032Z,98050.93
2018-12-17T02:00:56.799Z,98051.97
2018-12-17T02:03:29.094Z,98053.23
2018-12-17T02:06:01.339Z,98051.97
2018-12-17T02:08:33.596Z,98062.24
2018-12-17T02:11:05.997Z,98052.47
2018-12-17T02:13:38.500Z,98054.78
2018-12-17T02:16:10.744Z,98055.66
2018-12-17T02:18:43.001Z,98064.04
2018-12-17T02:21:15.259Z,98061.15
2018-12-17T02:23:47.454Z,98070.25
2018-12-17T02:26:19.703Z,98070.76
2018-12-17T02:28:51.920Z,98074.40
2018-12-17T02:31:24.250Z,98070.09
2018-12-17T02:33:56.471Z,98073.52
2018-12-17T02:36:28.736Z,98077.72
2018-12-17T02:39:01.139Z,98081.65
2018-12-17T02:41:33.365Z,98081.78
2018-12-17T02:44:05.782Z,98084.17
2018-12-17T02:46:38.021Z,98084.84
2018-12-17T02:49:10.673Z,98083.21
2018-12-17T02:51:42.948Z,98084.84
2018-12-17T02:54:15.159Z,98092.11
2018-12-17T02:56:47.397Z,98092.45
2018-12-17T02:59:19.620Z,98090.47
2018-12-17T03:01:51.855Z,98095.59
2018-12-17T03:04:24.123Z,98092.62
2018-12-17T03:06:56.357Z,98103.64
2018-12-17T03:09:28.694Z,98096.98
2018-12-17T03:12:00.927Z,98096.84
2018-12-17T03:14:33.159Z,98099.66
2018-12-17T03:17:05.376Z,98106.00
2018-12-17T03:19:37.619Z,98107.88
2018-12-17T03:22:09.815Z,98111.28
2018-12-17T03:24:42.134Z,98112.91
2018-12-17T03:27:14.361Z,98117.95
2018-12-17T03:29:46.666Z,98117.03
2018-12-17T03:32:18.990Z,98118.37
2018-12-17T03:34:51.323Z,98119.42
2018-12-17T03:37:23.537Z,98120.30
2018-12-17T03:39:55.779Z,98125.51
2018-12-17T03:42:28.052Z,98126.01
2018-12-17T03:45:00.295Z,98133.94
2018-12-17T03:47:32.516Z,98130.83
2018-12-17T03:50:05.539Z,98131.50
2018-12-17T03:52:37.787Z,98137.17
2018-12-17T03:55:09.991Z,98137.42
2018-12-17T03:57:42.208Z,98142.96
2018-12-17T04:00:14.430Z,98144.01
2018-12-17T04:02:46.661Z,98139.77
2018-12-17T04:05:18.875Z,98150.89
2018-12-17T04:07:51.103Z,98153.20
2018-12-17T04:10:23.344Z,98151.64
2018-12-17T04:12:55.873Z,98157.61
2018-12-17T04:15:28.396Z,98159.78
2018-12-17T04:18:00.868Z,98168.01
2018-12-17T04:20:33.324Z,98160.30
2018-12-17T04:23:05.564Z,98161.17
2018-12-17T04:25:37.758Z,98169.27
2018-12-17T04:28:10.430Z,98174.36
2018-12-17T04:30:42.655Z,98165.48
2018-12-17T04:33:14.936Z,98167.77
2018-12-17T04:35:47.267Z,98170.82
2018-12-17T04:38:19.488Z,98167.84
2018-12-17T04:40:51.936Z,98173.39
2018-12-17T04:43:24.212Z,98174.89
2018-12-17T04:45:56.464Z,98175.91
2018-12-17T04:48:28.702Z,98182.16
2018-12-17T04:51:00.949Z,98186.23
2018-12-17T04:53:33.178Z,98185.94
2018-12-17T04:56:05.417Z,98197.02
2018-12-17T04:58:37.630Z,98199.11
2018-12-17T05:01:16.561Z,98207.25
2018-12-17T05:03:48.932Z,98215.84
2018-12-17T05:06:21.144Z,98213.66
2018-12-17T05:08:53.379Z,98208.33
2018-12-17T05:11:25.581Z,98208.29
2018-12-17T05:14:04.412Z,98211.22
2018-12-17T05:16:36.644Z,98225.14
2018-12-17T05:19:08.892Z,98231.23
2018-12-17T05:21:41.170Z,98235.64
2018-12-17T05:24:13.439Z,98235.13
2018-12-17T05:26:45.676Z,98239.97
2018-12-17T05:29:21.547Z,98245.12
2018-12-17T05:31:52.207Z,98244.77
2018-12-17T05:34:24.515Z,98257.11
2018-12-17T05:36:56.710Z,98262.31
2018-12-17T05:39:28.953Z,98260.76
2018-12-17T05:42:01.387Z,98264.95
2018-12-17T05:44:33.627Z,98275.29
2018-12-17T05:47:05.836Z,98276.52
2018-12-17T05:49:38.092Z,98281.45
2018-12-17T05:52:10.323Z,98285.47
2018-12-17T05:54:42.543Z,98284.41
2018-12-17T05:57:14.759Z,98290.33
2018-12-17T05:59:47.033Z,98289.88
2018-12-17T06:02:19.283Z,98300.83
2018-12-17T06:04:51.509Z,98302.29
2018-12-17T06:07:24.013Z,98309.16
2018-12-17T06:09:56.209Z,98318.70
2018-12-17T06:12:28.437Z,98320.74
2018-12-17T06:15:00.631Z,98322.55
2018-12-17T06:20:11.926Z,98317.61
2018-12-17T06:22:44.139Z,98328.78
2018-12-17T06:25:17.356Z,98332.76
2018-12-17T06:27:49.951Z,98337.98
2018-12-17T06:30:22.175Z,98343.02
2018-12-17T06:32:54.415Z,98347.41
2018-12-17T06:35:26.631Z,98352.39
2018-12-17T06:37:58.862Z,98352.97
2018-12-17T06:40:31.107Z,98350.45
2018-12-17T06:43:10.098Z,98358.86
2018-12-17T06:45:42.363Z,98368.17
2018-12-17T06:48:17.304Z,98372.31
2018-12-17T06:50:48.847Z,98373.25
2018-12-17T06:53:21.067Z,98368.23
2018-12-17T06:55:53.281Z,98372.14
2018-12-17T06:58:25.830Z,98372.25
2018-12-17T07:00:58.003Z,98369.51
2018-12-17T07:03:30.227Z,98374.34
2018-12-17T07:06:02.482Z,98368.42
2018-12-17T07:08:34.693Z,98378.85
2018-12-17T07:11:06.908Z,98385.84
2018-12-17T07:13:39.099Z,98382.65
2018-12-17T07:16:11.943Z,98385.53
2018-12-17T07:18:44.324Z,98400.25
2018-12-17T07:21:16.610Z,98398.33
2018-12-17T07:23:48.873Z,98405.64
2018-12-17T07:26:21.088Z,98409.02
2018-12-17T07:28:53.464Z,98422.92
2018-12-17T07:31:25.663Z,98429.95
2018-12-17T07:33:57.919Z,98430.07
2018-12-17T07:36:30.133Z,98438.72
2018-12-17T07:39:03.276Z,98433.55
2018-12-17T07:41:36.231Z,98433.16
2018-12-17T07:44:08.511Z,98431.02
2018-12-17T07:46:40.724Z,98428.96
2018-12-17T07:49:12.955Z,98433.23
2018-12-17T07:51:45.168Z,98436.13
2018-12-17T07:54:17.446Z,98433.53
2018-12-17T07:56:49.644Z,98436.19
2018-12-17T07:59:21.888Z,98439.57
2018-12-17T08:01:54.144Z,98442.91
2018-12-17T08:04:26.366Z,98450.21
2018-12-17T08:06:58.597Z,98455.14
2018-12-17T08:09:30.843Z,98458.66
2018-12-17T08:12:03.099Z,98463.41
2018-12-17T08:14:35.385Z,98469.39
2018-12-17T08:17:07.800Z,98474.00
2018-12-17T08:19:40.028Z,98476.75
2018-12-17T08:22:12.247Z,98485.07
2018-12-17T08:24:44.470Z,98492.86
2018-12-17T08:27:16.735Z,98502.23
2018-12-17T08:29:48.969Z,98497.99
2018-12-17T08:32:21.187Z,98504.91
2018-12-17T08:34:53.431Z,98520.99
2018-12-17T08:37:25.680Z,98532.82
2018-12-17T08:39:57.919Z,98530.08
2018-12-17T08:42:30.149Z,98530.52
2018-12-17T08:45:02.444Z,98538.79
2018-12-17T08:47:34.854Z,98537.74
2018-12-17T08:50:07.264Z,98538.66
2018-12-17T08:52:39.506Z,98542.99
2018-12-17T08:55:11.707Z,98545.61
2018-12-17T08:57:43.963Z,98549.30
2018-12-17T09:00:16.228Z,98549.43
2018-12-17T09:02:48.474Z,98548.65
2018-12-17T09:05:20.743Z,98551.20
2018-12-17T09:07:53.099Z,98554.16
2018-12-17T09:10:25.340Z,98552.09
2018-12-17T09:12:57.642Z,98549.36
2018-12-17T09:15:29.857Z,98560.57
2018-12-17T09:18:02.108Z,98554.44
2018-12-17T09:20:34.447Z,98564.14
2018-12-17T09:23:06.707Z,98562.81
2018-12-17T09:25:38.928Z,98565.81
2018-12-17T09:28:11.185Z,98571.91
2018-12-17T09:30:43.515Z,98575.20
2018-12-17T09:33:15.838Z,98578.12
2018-12-17T09:35:48.107Z,98585.11
2018-12-17T09:38:20.381Z,98583.11
2018-12-17T09:40:52.612Z,98585.72
2018-12-17T09:43:24.891Z,98583.87
2018-12-17T09:45:57.198Z,98584.77
2018-12-17T09:48:29.504Z,98585.06
2018-12-17T09:51:01.760Z,98586.20
2018-12-17T09:53:34.019Z,98583.69
2018-12-17T09:56:06.319Z,98586.81
2018-12-17T09:58:38.972Z,98587.23
2018-12-17T10:01:11.224Z,98593.34
2018-12-17T10:03:43.501Z,98586.64
2018-12-17T10:06:16.015Z,98588.34
2018-12-17T10:08:48.249Z,98594.04
2018-12-17T10:11:20.497Z,98600.48
2018-12-17T10:13:52.732Z,98591.02
2018-12-17T10:16:25.008Z,98591.37
2018-12-17T10:18:57.255Z,98579.98
2018-12-17T10:21:29.584Z,98574.26
2018-12-17T10:24:02.069Z,98578.05
2018-12-17T10:26:34.660Z,98574.30
2018-12-17T10:29:06.992Z,98582.95
2018-12-17T10:31:39.239Z,98577.77
2018-12-17T10:34:11.484Z,98570.95
2018-12-17T10:36:43.760Z,98570.32
2018-12-17T10:39:16.017Z,98568.17
2018-12-17T10:41:48.313Z,98573.75
2018-12-17T10:44:20.579Z,98573.02
2018-12-17T10:46:52.975Z,98579.16
2018-12-17T10:49:25.238Z,98574.44
2018-12-17T10:51:57.502Z,98573.09
2018-12-17T10:54:29.732Z,98579.34
2018-12-17T10:57:01.973Z,98581.77
2018-12-17T10:59:34.244Z,98577.08
2018-12-17T11:02:13.085Z,98575.16
2018-12-17T11:04:49.809Z,98566.83
2018-12-17T11:07:22.080Z,98571.94
2018-12-17T11:09:54.352Z,98576.05
2018-12-17T11:12:26.611Z,98567.91
2018-12-17T11:14:58.848Z,98564.71
2018-12-17T11:17:31.112Z,98563.98
2018-12-17T11:20:04.128Z,98551.03
2018-12-17T11:22:36.368Z,98557.25
2018-12-17T11:25:08.608Z,98561.44
2018-12-17T11:27:40.852Z,98556.84
2018-12-17T11:30:13.111Z,98561.10
2018-12-17T11:32:45.382Z,98551.02
2018-12-17T11:35:17.587Z,98546.86
2018-12-17T11:37:49.868Z,98545.56
2018-12-17T11:40:22.091Z,98546.24
2018-12-17T11:42:54.339Z,98539.64
2018-12-17T11:45:26.917Z,98550.27
2018-12-17T11:47:59.227Z,98545.09
2018-12-17T11:50:31.469Z,98549.28
2018-12-17T11:53:03.865Z,98551.96
2018-12-17T11:55:36.220Z,98549.69
2018-12-17T11:58:10.905Z,98548.95
2018-12-17T12:00:53.669Z,98544.80
2018-12-17T12:03:23.688Z,98541.39
2018-12-17T12:05:55.959Z,98552.31
2018-12-17T12:08:28.272Z,98558.14
2018-12-17T12:11:00.564Z,98547.36
2018-12-17T12:13:32.852Z,98552.70
2018-12-17T12:16:05.084Z,98560.33
2018-12-17T12:18:37.419Z,98560.44
2018-12-17T12:21:09.666Z,98559.70
2018-12-17T12:23:41.930Z,98569.11
2018-12-17T12:26:14.196Z,98571.62
2018-12-17T12:28:46.452Z,98569.47
2018-12-17T12:31:18.686Z,98576.70
2018-12-17T12:33:50.937Z,98581.28
2018-12-17T12:36:23.167Z,98573.16
2018-12-17T12:38:55.513Z,98577.73
2018-12-17T12:41:27.811Z,98577.97
2018-12-17T12:44:00.053Z,98581.13
2018-12-17T12:46:32.337Z,98584.56
2018-12-17T12:49:04.625Z,98591.82
2018-12-17T12:51:36.959Z,98598.80
2018-12-17T12:54:09.276Z,98594.34
2018-12-17T12:56:41.562Z,98596.64
2018-12-17T12:59:13.853Z,98602.84
2018-12-17T13:01:46.151Z,98610.95
2018-12-17T13:04:18.399Z,98619.60
2018-12-17T13:06:50.676Z,98614.27
2018-12-17T13:09:22.988Z,98617.81
2018-12-17T13:11:55.279Z,98621.12
2018-12-17T13:14:27.566Z,98626.69
2018-12-17T13:17:04.400Z,98624.80
2018-12-17T13:19:36.886Z,98626.20
2018-12-17T13:22:09.119Z,98627.84
2018-12-17T13:24:41.375Z,98630.91
2018-12-17T13:27:13.657Z,98632.03
2018-12-17T13:29:46.137Z,98632.80
2018-12-17T13:32:18.959Z,98628.58
2018-12-17T13:34:51.207Z,98636.59
2018-12-17T13:37:23.683Z,98642.13
2018-12-17T13:39:55.945Z,98649.25
2018-12-17T13:42:28.205Z,98646.09
2018-12-17T13:45:01.160Z,98652.79
2018-12-17T13:47:33.476Z,98661.17
2018-12-17T13:50:11.457Z,98650.84
2018-12-17T13:52:46.198Z,98654.00
2018-12-17T13:55:18.483Z,98660.84
2018-12-17T13:57:50.788Z,98662.50
2018-12-17T14:00:23.051Z,98668.58
2018-12-17T14:02:55.357Z,98668.36
2018-12-17T14:05:27.617Z,98675.97
2018-12-17T14:07:59.916Z,98675.70
2018-12-17T14:10:37.915Z,98681.77
2018-12-17T14:13:10.183Z,98692.19
2018-12-17T14:15:48.112Z,98699.52
2018-12-17T14:18:26.060Z,98702.25
2018-12-17T14:21:04.241Z,98698.95
2018-12-17T14:23:36.641Z,98708.70
2018-12-17T14:26:08.949Z,98715.27
2018-12-17T14:28:41.260Z,98718.69
2018-12-17T14:31:13.576Z,98719.19
2018-12-17T14:33:45.863Z,98716.60
2018-12-17T14:36:18.153Z,98731.05
2018-12-17T14:38:50.444Z,98734.35
2018-12-17T14:41:22.693Z,98734.73
2018-12-17T14:43:59.584Z,98742.80
2018-12-17T14:46:36.385Z,98746.98
2018-12-17T14:49:08.655Z,98751.05
2018-12-17T14:51:40.918Z,98759.91
2018-12-17T14:54:13.266Z,98761.69
2018-12-17T14:56:45.590Z,98763.28
2018-12-17T14:59:17.820Z,98782.69
2018-12-17T15:01:50.129Z,98787.75
2018-12-17T15:04:22.428Z,98790.73
2018-12-17T15:06:54.720Z,98793.75
2018-12-17T15:09:27.080Z,98795.47
2018-12-17T15:11:59.387Z,98802.39
2018-12-17T15:14:31.713Z,98814.90
2018-12-17T15:17:04.049Z,98816.11
2018-12-17T15:19:36.329Z,98824.75
2018-12-17T15:22:08.624Z,98822.44
2018-12-17T15:24:41.017Z,98815.98
2018-12-17T15:27:13.409Z,98822.16
2018-12-17T15:29:45.678Z,98831.95
2018-12-17T15:32:18.037Z,98830.90
2018-12-17T15:34:50.283Z,98845.22
2018-12-17T15:37:22.705Z,98844.93
2018-12-17T15:39:54.975Z,98845.25
2018-12-17T15:42:27.269Z,98851.55
2018-12-17T15:45:00.525Z,98852.53
2018-12-17T15:47:32.879Z,98852.24
2018-12-17T15:50:05.280Z,98865.73
2018-12-17T15:52:37.599Z,98865.57
2018-12-17T15:55:09.961Z,98868.70
2018-12-17T15:57:42.276Z,98871.23
2018-12-17T16:00:14.566Z,98882.28
2018-12-17T16:02:46.881Z,98885.55
2018-12-17T16:05:20.160Z,98885.04
2018-12-17T16:07:52.468Z,98891.30
2018-12-17T16:10:24.717Z,98890.03
2018-12-17T16:12:57.036Z,98894.38
2018-12-17T16:15:29.309Z,98894.66
2018-12-17T16:18:01.586Z,98895.68
2018-12-17T16:20:33.970Z,98894.63
2018-12-17T16:23:06.254Z,98900.44
2018-12-17T16:25:38.600Z,98903.08
2018-12-17T16:28:10.901Z,98907.98
2018-12-17T16:30:43.243Z,98904.36
2018-12-17T16:33:15.577Z,98905.71
2018-12-17T16:35:47.909Z,98901.37
2018-12-17T16:38:20.211Z,98903.17
2018-12-17T16:40:52.544Z,98896.59
2018-12-17T16:43:24.844Z,98905.46
2018-12-17T16:45:57.189Z,98917.48
2018-12-17T16:48:29.437Z,98904.28
2018-12-17T16:51:01.793Z,98910.61
2018-12-17T16:53:34.149Z,98912.85
2018-12-17T16:56:06.564Z,98910.19
2018-12-17T16:58:38.892Z,98918.22
2018-12-17T17:01:11.267Z,98918.22
2018-12-17T17:03:43.548Z,98924.84
2018-12-17T17:06:15.955Z,98928.64
2018-12-17T17:08:48.304Z,98930.88
2018-12-17T17:11:20.671Z,98931.72
2018-12-17T17:13:52.991Z,98939.06
2018-12-17T17:16:25.526Z,98938.09
2018-12-17T17:18:57.896Z,98949.64
2018-12-17T17:21:30.196Z,98956.41
2018-12-17T17:24:02.516Z,98958.22
2018-12-17T17:26:34.806Z,98962.61
2018-12-17T17:29:07.146Z,98967.29
2018-12-17T17:31:39.521Z,98969.73
2018-12-17T17:34:11.935Z,98967.16
2018-12-17T17:36:44.269Z,98961.26
2018-12-17T17:39:16.619Z,98968.85
2018-12-17T17:41:48.947Z,98964.08
2018-12-17T17:44:21.380Z,98971.47
2018-12-17T17:46:53.663Z,98980.61
2018-12-17T17:49:26.031Z,98988.88
2018-12-17T17:51:58.340Z,99000.41
2018-12-17T17:54:30.668Z,99000.27
2018-12-17T17:57:03.013Z,99003.39
2018-12-17T17:59:35.338Z,99016.34
2018-12-17T18:02:07.413Z,99016.48
2018-12-17T18:04:39.756Z,99025.59
2018-12-17T18:07:12.148Z,99015.38
2018-12-17T18:09:44.607Z,99018.67
2018-12-17T18:12:17.009Z,99024.26
2018-12-17T18:14:49.381Z,99021.72
2018-12-17T18:17:21.686Z,99029.61
2018-12-17T18:19:54.078Z,99023.94
2018-12-17T18:22:26.418Z,99021.92
2018-12-17T18:24:58.815Z,99023.72
2018-12-17T18:30:29.390Z,99025.87
2018-12-17T18:33:01.773Z,99036.28
2018-12-17T18:35:34.211Z,99038.66
2018-12-17T18:38:06.553Z,99044.41
2018-12-17T18:40:39.083Z,99040.77
2018-12-17T18:43:11.494Z,99045.16
2018-12-17T18:45:44.062Z,99043.38
2018-12-17T18:48:16.502Z,99043.05
2018-12-17T18:50:48.935Z,99051.48
2018-12-17T18:53:21.328Z,99055.30
2018-12-17T18:55:53.960Z,99052.67
2018-12-17T18:58:26.385Z,99051.28
2018-12-17T19:00:58.962Z,99051.48
2018-12-17T19:03:31.325Z,99059.01
2018-12-17T19:06:04.096Z,99064.14
2018-12-17T19:08:36.504Z,99060.55
2018-12-17T19:11:08.922Z,99069.95
2018-12-17T19:13:41.444Z,99076.80
2018-12-17T19:16:13.824Z,99073.80
2018-12-17T19:18:46.264Z,99076.91
2018-12-17T19:21:18.732Z,99081.83
2018-12-17T19:23:51.092Z,99085.14
2018-12-17T19:26:23.580Z,99078.72
2018-12-17T19:28:56.013Z,99095.31
2018-12-17T19:31:34.396Z,99091.20
2018-12-17T19:34:02.765Z,99098.22
2018-12-17T19:36:35.313Z,99099.25
2018-12-17T19:39:08.215Z,99110.16
2018-12-17T19:41:40.617Z,99112.55
2018-12-17T19:44:13.130Z,99116.37
2018-12-17T19:46:45.512Z,99126.40
2018-12-17T19:49:17.900Z,99118.67
2018-12-17T19:51:50.280Z,99120.86
2018-12-17T19:54:22.846Z,99124.08
2018-12-17T19:56:55.396Z,99117.95
2018-12-17T19:59:27.948Z,99109.09
2018-12-17T20:02:00.428Z,99114.70
2018-12-17T20:04:33.090Z,99111.59
2018-12-17T20:07:05.492Z,99110.26
2018-12-17T20:09:38.026Z,99108.82
2018-12-17T20:12:10.414Z,99111.42
2018-12-17T20:14:43.158Z,99116.92
2018-12-17T20:17:15.562Z,99119.14
2018-12-17T20:19:48.027Z,99114.39
2018-12-17T20:22:20.567Z,99117.55
2018-12-17T20:24:53.079Z,99119.73
2018-12-17T20:27:25.447Z,99128.17
2018-12-17T20:29:57.950Z,99118.88
2018-12-17T20:32:30.468Z,99121.12
2018-12-17T20:35:02.983Z,99122.22
2018-12-17T20:37:35.404Z,99130.78
2018-12-17T20:40:09.026Z,99127.63
2018-12-17T20:42:41.517Z,99133.89
2018-12-17T20:45:14.052Z,99138.38
2018-12-17T20:47:46.489Z,99146.27
2018-12-17T20:50:18.900Z,99148.67
2018-12-17T20:52:51.306Z,99153.36
2018-12-17T20:55:30.351Z,99157.16
2018-12-17T20:57:58.927Z,99162.97
2018-12-17T21:00:31.566Z,99167.08
2018-12-17T21:03:04.005Z,99167.00
2018-12-17T21:05:36.449Z,99169.53
2018-12-17T21:08:08.845Z,99176.92
2018-12-17T21:10:41.217Z,99179.39
2018-12-17T21:13:13.613Z,99169.57
2018-12-17T21:15:46.874Z,99167.24
2018-12-17T21:18:19.329Z,99176.66
2018-12-17T21:20:51.710Z,99178.87
2018-12-17T21:23:24.075Z,99180.45
2018-12-17T21:25:56.359Z,99178.87
2018-12-17T21:28:28.692Z,99176.52
2018-12-17T21:31:01.029Z,99169.81
2018-12-17T21:33:33.409Z,99166.39
2018-12-17T21:36:05.741Z,99175.63
2018-12-17T21:38:38.042Z,99183.25
2018-12-17T21:41:10.453Z,99175.31
2018-12-17T21:43:42.784Z,99179.11
2018-12-17T21:46:15.141Z,99175.31
2018-12-17T21:48:47.450Z,99181.78
2018-12-17T21:51:19.708Z,99184.25
2018-12-17T21:53:52.132Z,99183.91
2018-12-17T21:56:24.409Z,99179.19
2018-12-17T21:58:56.741Z,99186.58
2018-12-17T22:01:29.032Z,99187.33
2018-12-17T22:04:01.410Z,99183.91
2018-12-17T22:06:33.862Z,99185.00
2018-12-17T22:09:07.051Z,99183.53
2018-12-17T22:11:39.382Z,99181.95
2018-12-17T22:14:11.756Z,99179.94
2018-12-17T22:16:44.116Z,99187.91
2018-12-17T22:19:16.364Z,99189.95
2018-12-17T22:21:48.620Z,99193.99
2018-12-17T22:24:20.914Z,99196.93
2018-12-17T22:26:53.193Z,99196.13
2018-12-17T22:29:25.551Z,99197.64
2018-12-17T22:31:57.914Z,99194.88
2018-12-17T22:34:30.220Z,99194.53
2018-12-17T22:37:02.630Z,99201.88
2018-12-17T22:39:34.911Z,99198.98
2018-12-17T22:42:07.208Z,99200.48
2018-12-17T22:44:39.731Z,99202.86
2018-12-17T22:47:12.032Z,99202.73
2018-12-17T22:49:44.335Z,99206.38
2018-12-17T22:52:16.657Z,99211.91
2018-12-17T22:54:49.011Z,99207.08
2018-12-17T22:57:21.302Z,99207.59
2018-12-17T22:59:53.583Z,99206.73
2018-12-17T23:02:25.862Z,99210.88
2018-12-17T23:04:58.157Z,99211.70
2018-12-17T23:07:30.429Z,99208.80
2018-12-17T23:10:14.211Z,99205.18
2018-12-17T23:12:57.964Z,99198.30
2018-12-17T23:15:41.581Z,99201.73
2018-12-17T23:18:14.259Z,99212.02
2018-12-17T23:20:46.782Z,99210.23
2018-12-17T23:23:19.133Z,99211.82
2018-12-17T23:25:51.404Z,99208.73
2018-12-17T23:28:23.663Z,99209.29
2018-12-17T23:30:55.942Z,99203.59
2018-12-17T23:33:32.778Z,99204.34
2018-12-17T23:36:02.615Z,99203.74
2018-12-17T23:38:35.020Z,99198.42
2018-12-17T23:41:07.334Z,99199.89
2018-12-17T23:43:39.579Z,99192.73
2018-12-17T23:46:11.987Z,99192.25
2018-12-17T23:48:44.271Z,99194.95
2018-12-17T23:51:16.613Z,99190.30
2018-12-17T23:53:48.891Z,99188.52
2018-12-17T23:56:21.185Z,99187.05
2018-12-17T23:58:53.468Z,99190.47
